sensor_id;sensor_type;location;lat;lon;timestamp;temperature;humidity
12039;DHT22;6080;48.818;9.526;2022-11-21T00:00:18;5.90;99.90
12039;DHT22;6080;48.818;9.526;2022-11-21T00:02:44;6.00;99.90
12039;DHT22;6080;48.818;9.526;2022-11-21T00:05:10;5.90;99.90
12039;DHT22;6080;48.818;9.526;2022-11-21T00:07:36;6.00;99.90
12039;DHT22;6080;48.818;9.526;2022-11-21T00:10:02;6.00;99.90
12039;DHT22;6080;48.818;9.526;2022-11-21T00:12:28;6.00;99.90
12039;DHT22;6080;48.818;9.526;2022-11-21T00:14:54;6.00;99.90
12039;DHT22;6080;48.818;9.526;2022-11-21T00:17:19;6.00;99.90
12039;DHT22;6080;48.818;9.526;2022-11-21T00:19:45;6.00;99.90
12039;DHT22;6080;48.818;9.526;2022-11-21T00:22:11;6.00;99.90
12039;DHT22;6080;48.818;9.526;2022-11-21T00:24:37;6.10;99.90
12039;DHT22;6080;48.818;9.526;2022-11-21T00:27:02;6.10;99.90
12039;DHT22;6080;48.818;9.526;2022-11-21T00:29:28;6.10;99.90
12039;DHT22;6080;48.818;9.526;2022-11-21T00:31:54;6.10;99.90
12039;DHT22;6080;48.818;9.526;2022-11-21T00:34:20;6.10;99.90
12039;DHT22;6080;48.818;9.526;2022-11-21T00:36:45;6.20;99.90
12039;DHT22;6080;48.818;9.526;2022-11-21T00:39:11;6.10;99.90
12039;DHT22;6080;48.818;9.526;2022-11-21T00:41:37;6.00;99.90
12039;DHT22;6080;48.818;9.526;2022-11-21T00:44:03;5.80;99.90
12039;DHT22;6080;48.818;9.526;2022-11-21T00:46:28;5.70;99.90
12039;DHT22;6080;48.818;9.526;2022-11-21T00:48:54;5.70;99.90
12039;DHT22;6080;48.818;9.526;2022-11-21T00:51:20;5.60;99.90
12039;DHT22;6080;48.818;9.526;2022-11-21T00:53:46;5.60;99.90
12039;DHT22;6080;48.818;9.526;2022-11-21T00:56:12;5.60;99.90
12039;DHT22;6080;48.818;9.526;2022-11-21T00:58:37;5.60;99.90
12039;DHT22;6080;48.818;9.526;2022-11-21T01:01:05;5.60;99.90
12039;DHT22;6080;48.818;9.526;2022-11-21T01:03:33;5.60;99.90
12039;DHT22;6080;48.818;9.526;2022-11-21T01:06:04;5.60;99.90
12039;DHT22;6080;48.818;9.526;2022-11-21T01:08:31;5.60;99.90
12039;DHT22;6080;48.818;9.526;2022-11-21T01:11:01;5.50;99.90
12039;DHT22;6080;48.818;9.526;2022-11-21T01:13:27;5.50;99.90
12039;DHT22;6080;48.818;9.526;2022-11-21T01:15:53;5.50;99.90
12039;DHT22;6080;48.818;9.526;2022-11-21T01:18:19;5.50;99.90
12039;DHT22;6080;48.818;9.526;2022-11-21T01:20:45;5.50;99.90
12039;DHT22;6080;48.818;9.526;2022-11-21T01:23:10;5.50;99.90
12039;DHT22;6080;48.818;9.526;2022-11-21T01:25:36;5.60;99.90
12039;DHT22;6080;48.818;9.526;2022-11-21T01:28:02;5.60;99.90
12039;DHT22;6080;48.818;9.526;2022-11-21T01:30:28;5.60;99.90
12039;DHT22;6080;48.818;9.526;2022-11-21T01:32:53;5.60;99.90
12039;DHT22;6080;48.818;9.526;2022-11-21T01:35:19;5.70;99.90
12039;DHT22;6080;48.818;9.526;2022-11-21T01:37:49;5.70;99.90
12039;DHT22;6080;48.818;9.526;2022-11-21T01:40:15;5.70;99.90
12039;DHT22;6080;48.818;9.526;2022-11-21T01:43:11;5.70;99.90
12039;DHT22;6080;48.818;9.526;2022-11-21T01:48:21;5.80;99.90
12039;DHT22;6080;48.818;9.526;2022-11-21T01:50:49;5.80;99.90
12039;DHT22;6080;48.818;9.526;2022-11-21T01:53:15;5.70;99.90
12039;DHT22;6080;48.818;9.526;2022-11-21T01:55:41;5.70;99.90
12039;DHT22;6080;48.818;9.526;2022-11-21T01:58:12;5.60;99.90
12039;DHT22;6080;48.818;9.526;2022-11-21T02:00:39;5.60;99.90
12039;DHT22;6080;48.818;9.526;2022-11-21T02:03:12;5.60;99.90
12039;DHT22;6080;48.818;9.526;2022-11-21T02:05:39;5.60;99.90
12039;DHT22;6080;48.818;9.526;2022-11-21T02:08:12;5.60;99.90
12039;DHT22;6080;48.818;9.526;2022-11-21T02:10:42;5.50;99.90
12039;DHT22;6080;48.818;9.526;2022-11-21T02:13:10;5.50;99.90
12039;DHT22;6080;48.818;9.526;2022-11-21T02:15:36;5.40;99.90
12039;DHT22;6080;48.818;9.526;2022-11-21T02:18:05;5.40;99.90
12039;DHT22;6080;48.818;9.526;2022-11-21T02:20:31;5.40;99.90
12039;DHT22;6080;48.818;9.526;2022-11-21T02:23:12;5.30;99.90
12039;DHT22;6080;48.818;9.526;2022-11-21T02:25:39;5.30;99.90
12039;DHT22;6080;48.818;9.526;2022-11-21T02:28:08;5.20;99.90
12039;DHT22;6080;48.818;9.526;2022-11-21T02:30:38;5.20;99.90
12039;DHT22;6080;48.818;9.526;2022-11-21T02:33:04;5.20;99.90
12039;DHT22;6080;48.818;9.526;2022-11-21T02:35:31;5.20;99.90
12039;DHT22;6080;48.818;9.526;2022-11-21T02:38:04;5.10;99.90
12039;DHT22;6080;48.818;9.526;2022-11-21T02:40:33;5.20;99.90
12039;DHT22;6080;48.818;9.526;2022-11-21T02:43:20;5.20;99.90
12039;DHT22;6080;48.818;9.526;2022-11-21T02:45:47;5.20;99.90
12039;DHT22;6080;48.818;9.526;2022-11-21T02:48:13;5.20;99.90
12039;DHT22;6080;48.818;9.526;2022-11-21T02:50:41;5.20;99.90
12039;DHT22;6080;48.818;9.526;2022-11-21T02:53:10;5.20;99.90
12039;DHT22;6080;48.818;9.526;2022-11-21T02:55:36;5.20;99.90
12039;DHT22;6080;48.818;9.526;2022-11-21T02:58:03;5.20;99.90
12039;DHT22;6080;48.818;9.526;2022-11-21T03:00:29;5.20;99.90
12039;DHT22;6080;48.818;9.526;2022-11-21T03:02:55;5.20;99.90
12039;DHT22;6080;48.818;9.526;2022-11-21T03:05:21;5.20;99.90
12039;DHT22;6080;48.818;9.526;2022-11-21T03:07:47;5.20;99.90
12039;DHT22;6080;48.818;9.526;2022-11-21T03:10:13;5.20;99.90
12039;DHT22;6080;48.818;9.526;2022-11-21T03:12:40;5.20;99.90
12039;DHT22;6080;48.818;9.526;2022-11-21T03:15:10;5.20;99.90
12039;DHT22;6080;48.818;9.526;2022-11-21T03:17:36;5.20;99.90
12039;DHT22;6080;48.818;9.526;2022-11-21T03:20:03;5.20;99.90
12039;DHT22;6080;48.818;9.526;2022-11-21T03:22:29;5.30;99.90
12039;DHT22;6080;48.818;9.526;2022-11-21T03:24:55;5.20;99.90
12039;DHT22;6080;48.818;9.526;2022-11-21T03:27:21;5.20;99.90
12039;DHT22;6080;48.818;9.526;2022-11-21T03:29:47;5.20;99.90
12039;DHT22;6080;48.818;9.526;2022-11-21T03:32:13;5.30;99.90
12039;DHT22;6080;48.818;9.526;2022-11-21T03:34:39;5.30;99.90
12039;DHT22;6080;48.818;9.526;2022-11-21T03:37:05;5.30;99.90
12039;DHT22;6080;48.818;9.526;2022-11-21T03:39:30;5.40;99.90
12039;DHT22;6080;48.818;9.526;2022-11-21T03:41:56;5.40;99.90
12039;DHT22;6080;48.818;9.526;2022-11-21T03:44:22;5.40;99.90
12039;DHT22;6080;48.818;9.526;2022-11-21T03:46:48;5.40;99.90
12039;DHT22;6080;48.818;9.526;2022-11-21T03:49:14;5.40;99.90
12039;DHT22;6080;48.818;9.526;2022-11-21T03:51:42;5.40;99.90
12039;DHT22;6080;48.818;9.526;2022-11-21T03:54:08;5.40;99.90
12039;DHT22;6080;48.818;9.526;2022-11-21T03:56:34;5.40;99.90
12039;DHT22;6080;48.818;9.526;2022-11-21T03:59:01;5.40;99.90
12039;DHT22;6080;48.818;9.526;2022-11-21T04:01:27;5.50;99.90
12039;DHT22;6080;48.818;9.526;2022-11-21T04:03:55;5.50;99.90
12039;DHT22;6080;48.818;9.526;2022-11-21T04:06:21;5.50;99.90
12039;DHT22;6080;48.818;9.526;2022-11-21T04:08:48;5.50;99.90
12039;DHT22;6080;48.818;9.526;2022-11-21T04:11:14;5.50;99.90
12039;DHT22;6080;48.818;9.526;2022-11-21T04:13:41;5.50;99.90
12039;DHT22;6080;48.818;9.526;2022-11-21T04:16:07;5.50;99.90
12039;DHT22;6080;48.818;9.526;2022-11-21T04:18:33;5.60;99.90
12039;DHT22;6080;48.818;9.526;2022-11-21T04:21:01;5.60;99.90
12039;DHT22;6080;48.818;9.526;2022-11-21T04:23:28;5.60;99.90
12039;DHT22;6080;48.818;9.526;2022-11-21T04:25:54;5.60;99.90
12039;DHT22;6080;48.818;9.526;2022-11-21T04:28:20;5.60;99.90
12039;DHT22;6080;48.818;9.526;2022-11-21T04:30:47;5.50;99.90
12039;DHT22;6080;48.818;9.526;2022-11-21T04:33:14;5.50;99.90
12039;DHT22;6080;48.818;9.526;2022-11-21T04:35:41;5.40;99.90
12039;DHT22;6080;48.818;9.526;2022-11-21T04:38:07;5.50;99.90
12039;DHT22;6080;48.818;9.526;2022-11-21T04:40:34;5.40;99.90
12039;DHT22;6080;48.818;9.526;2022-11-21T04:43:00;5.50;99.90
12039;DHT22;6080;48.818;9.526;2022-11-21T04:45:26;5.50;99.90
12039;DHT22;6080;48.818;9.526;2022-11-21T04:47:52;5.40;99.90
12039;DHT22;6080;48.818;9.526;2022-11-21T04:50:18;5.40;99.90
12039;DHT22;6080;48.818;9.526;2022-11-21T04:52:55;5.50;99.90
12039;DHT22;6080;48.818;9.526;2022-11-21T04:55:26;5.50;99.90
12039;DHT22;6080;48.818;9.526;2022-11-21T04:57:53;5.50;99.90
12039;DHT22;6080;48.818;9.526;2022-11-21T05:00:20;5.50;99.90
12039;DHT22;6080;48.818;9.526;2022-11-21T05:02:46;5.50;99.90
12039;DHT22;6080;48.818;9.526;2022-11-21T05:05:12;5.50;99.90
12039;DHT22;6080;48.818;9.526;2022-11-21T05:07:38;5.50;99.90
12039;DHT22;6080;48.818;9.526;2022-11-21T05:10:07;5.50;99.90
12039;DHT22;6080;48.818;9.526;2022-11-21T05:12:33;5.40;99.90
12039;DHT22;6080;48.818;9.526;2022-11-21T05:15:18;5.50;99.90
12039;DHT22;6080;48.818;9.526;2022-11-21T05:17:44;5.50;99.90
12039;DHT22;6080;48.818;9.526;2022-11-21T05:20:10;5.50;99.90
12039;DHT22;6080;48.818;9.526;2022-11-21T05:22:36;5.50;99.90
12039;DHT22;6080;48.818;9.526;2022-11-21T05:25:02;5.60;99.90
12039;DHT22;6080;48.818;9.526;2022-11-21T05:27:28;5.60;99.90
12039;DHT22;6080;48.818;9.526;2022-11-21T05:29:54;5.60;99.90
12039;DHT22;6080;48.818;9.526;2022-11-21T05:32:20;5.60;99.90
12039;DHT22;6080;48.818;9.526;2022-11-21T05:34:46;5.60;99.90
12039;DHT22;6080;48.818;9.526;2022-11-21T05:37:12;5.60;99.90
12039;DHT22;6080;48.818;9.526;2022-11-21T05:39:37;5.60;99.90
12039;DHT22;6080;48.818;9.526;2022-11-21T05:42:03;5.60;99.90
12039;DHT22;6080;48.818;9.526;2022-11-21T05:44:29;5.60;99.90
12039;DHT22;6080;48.818;9.526;2022-11-21T05:46:55;5.60;99.90
12039;DHT22;6080;48.818;9.526;2022-11-21T05:49:20;5.70;99.90
12039;DHT22;6080;48.818;9.526;2022-11-21T05:51:46;5.70;99.90
12039;DHT22;6080;48.818;9.526;2022-11-21T05:54:13;5.60;99.90
12039;DHT22;6080;48.818;9.526;2022-11-21T05:56:39;5.60;99.90
12039;DHT22;6080;48.818;9.526;2022-11-21T05:59:05;5.60;99.90
12039;DHT22;6080;48.818;9.526;2022-11-21T06:01:30;5.70;99.90
12039;DHT22;6080;48.818;9.526;2022-11-21T06:04:15;5.70;99.90
12039;DHT22;6080;48.818;9.526;2022-11-21T06:06:41;5.60;99.90
12039;DHT22;6080;48.818;9.526;2022-11-21T06:09:06;5.70;99.90
12039;DHT22;6080;48.818;9.526;2022-11-21T06:11:32;5.70;99.90
12039;DHT22;6080;48.818;9.526;2022-11-21T06:13:58;5.70;99.90
12039;DHT22;6080;48.818;9.526;2022-11-21T06:16:24;5.60;99.90
12039;DHT22;6080;48.818;9.526;2022-11-21T06:18:51;5.60;99.90
12039;DHT22;6080;48.818;9.526;2022-11-21T06:21:17;5.60;99.90
12039;DHT22;6080;48.818;9.526;2022-11-21T06:23:44;5.60;99.90
12039;DHT22;6080;48.818;9.526;2022-11-21T06:26:15;5.60;99.90
12039;DHT22;6080;48.818;9.526;2022-11-21T06:28:42;5.50;99.90
12039;DHT22;6080;48.818;9.526;2022-11-21T06:31:10;5.50;99.90
12039;DHT22;6080;48.818;9.526;2022-11-21T06:33:37;5.40;99.90
12039;DHT22;6080;48.818;9.526;2022-11-21T06:36:11;5.40;99.90
12039;DHT22;6080;48.818;9.526;2022-11-21T06:38:37;5.30;99.90
12039;DHT22;6080;48.818;9.526;2022-11-21T06:41:13;5.20;99.90
12039;DHT22;6080;48.818;9.526;2022-11-21T06:43:40;5.10;99.90
12039;DHT22;6080;48.818;9.526;2022-11-21T06:46:06;5.00;99.90
12039;DHT22;6080;48.818;9.526;2022-11-21T06:48:33;5.00;99.90
12039;DHT22;6080;48.818;9.526;2022-11-21T06:51:15;4.90;99.90
12039;DHT22;6080;48.818;9.526;2022-11-21T06:53:41;4.90;99.90
12039;DHT22;6080;48.818;9.526;2022-11-21T06:56:07;4.90;99.90
12039;DHT22;6080;48.818;9.526;2022-11-21T06:58:33;5.00;99.90
12039;DHT22;6080;48.818;9.526;2022-11-21T07:01:03;5.10;99.90
12039;DHT22;6080;48.818;9.526;2022-11-21T07:03:29;5.20;99.90
12039;DHT22;6080;48.818;9.526;2022-11-21T07:05:55;5.20;99.90
12039;DHT22;6080;48.818;9.526;2022-11-21T07:08:25;5.30;99.90
12039;DHT22;6080;48.818;9.526;2022-11-21T07:10:51;5.30;99.90
12039;DHT22;6080;48.818;9.526;2022-11-21T07:13:17;5.40;99.90
12039;DHT22;6080;48.818;9.526;2022-11-21T07:15:47;5.40;99.90
12039;DHT22;6080;48.818;9.526;2022-11-21T07:18:13;5.40;99.90
12039;DHT22;6080;48.818;9.526;2022-11-21T07:20:40;5.40;99.90
12039;DHT22;6080;48.818;9.526;2022-11-21T07:23:06;5.40;99.90
12039;DHT22;6080;48.818;9.526;2022-11-21T07:25:32;5.40;99.90
12039;DHT22;6080;48.818;9.526;2022-11-21T07:27:59;5.40;99.90
12039;DHT22;6080;48.818;9.526;2022-11-21T07:30:25;5.40;99.90
12039;DHT22;6080;48.818;9.526;2022-11-21T07:32:58;5.40;99.90
12039;DHT22;6080;48.818;9.526;2022-11-21T07:35:25;5.50;99.90
12039;DHT22;6080;48.818;9.526;2022-11-21T07:37:51;5.60;99.90
12039;DHT22;6080;48.818;9.526;2022-11-21T07:40:18;5.90;99.90
12039;DHT22;6080;48.818;9.526;2022-11-21T07:42:44;6.20;99.90
12039;DHT22;6080;48.818;9.526;2022-11-21T07:45:11;6.30;99.90
12039;DHT22;6080;48.818;9.526;2022-11-21T07:47:37;6.50;99.90
12039;DHT22;6080;48.818;9.526;2022-11-21T07:50:04;6.60;99.90
12039;DHT22;6080;48.818;9.526;2022-11-21T07:52:30;7.00;99.90
12039;DHT22;6080;48.818;9.526;2022-11-21T07:54:56;7.20;99.90
12039;DHT22;6080;48.818;9.526;2022-11-21T07:57:23;7.30;99.90
12039;DHT22;6080;48.818;9.526;2022-11-21T07:59:50;7.40;99.90
12039;DHT22;6080;48.818;9.526;2022-11-21T08:02:22;7.50;99.90
12039;DHT22;6080;48.818;9.526;2022-11-21T08:04:48;7.70;99.90
12039;DHT22;6080;48.818;9.526;2022-11-21T08:07:18;7.50;99.90
12039;DHT22;6080;48.818;9.526;2022-11-21T08:09:44;7.50;99.90
12039;DHT22;6080;48.818;9.526;2022-11-21T08:12:11;7.30;99.90
12039;DHT22;6080;48.818;9.526;2022-11-21T08:14:37;6.90;99.90
12039;DHT22;6080;48.818;9.526;2022-11-21T08:17:03;6.70;99.90
12039;DHT22;6080;48.818;9.526;2022-11-21T08:19:30;6.60;99.90
12039;DHT22;6080;48.818;9.526;2022-11-21T08:21:56;6.70;99.90
12039;DHT22;6080;48.818;9.526;2022-11-21T08:24:22;7.00;99.90
12039;DHT22;6080;48.818;9.526;2022-11-21T08:26:49;7.40;99.90
12039;DHT22;6080;48.818;9.526;2022-11-21T08:29:15;7.50;99.90
12039;DHT22;6080;48.818;9.526;2022-11-21T08:31:41;7.40;99.90
12039;DHT22;6080;48.818;9.526;2022-11-21T08:34:08;7.20;99.90
12039;DHT22;6080;48.818;9.526;2022-11-21T08:36:34;7.30;99.90
12039;DHT22;6080;48.818;9.526;2022-11-21T08:39:00;7.70;99.90
12039;DHT22;6080;48.818;9.526;2022-11-21T08:41:26;8.40;99.90
12039;DHT22;6080;48.818;9.526;2022-11-21T08:44:10;9.20;99.90
12039;DHT22;6080;48.818;9.526;2022-11-21T08:46:36;9.70;99.90
12039;DHT22;6080;48.818;9.526;2022-11-21T08:49:03;9.70;99.90
12039;DHT22;6080;48.818;9.526;2022-11-21T08:51:29;9.70;99.90
12039;DHT22;6080;48.818;9.526;2022-11-21T08:53:55;10.50;99.90
12039;DHT22;6080;48.818;9.526;2022-11-21T08:56:20;11.20;99.90
12039;DHT22;6080;48.818;9.526;2022-11-21T08:58:46;11.60;99.90
12039;DHT22;6080;48.818;9.526;2022-11-21T09:01:12;11.30;99.90
12039;DHT22;6080;48.818;9.526;2022-11-21T09:03:38;11.40;99.90
12039;DHT22;6080;48.818;9.526;2022-11-21T09:06:04;11.70;99.90
12039;DHT22;6080;48.818;9.526;2022-11-21T09:08:30;11.80;99.90
12039;DHT22;6080;48.818;9.526;2022-11-21T09:10:56;11.70;99.90
12039;DHT22;6080;48.818;9.526;2022-11-21T09:13:22;12.20;99.90
12039;DHT22;6080;48.818;9.526;2022-11-21T09:15:48;11.90;99.90
12039;DHT22;6080;48.818;9.526;2022-11-21T09:18:33;11.90;99.90
12039;DHT22;6080;48.818;9.526;2022-11-21T09:20:58;12.30;99.90
12039;DHT22;6080;48.818;9.526;2022-11-21T09:23:25;12.30;99.90
12039;DHT22;6080;48.818;9.526;2022-11-21T09:25:50;11.80;99.90
12039;DHT22;6080;48.818;9.526;2022-11-21T09:28:16;11.30;99.90
12039;DHT22;6080;48.818;9.526;2022-11-21T09:30:42;11.20;99.90
12039;DHT22;6080;48.818;9.526;2022-11-21T09:33:13;11.50;99.90
12039;DHT22;6080;48.818;9.526;2022-11-21T09:35:39;10.90;99.90
12039;DHT22;6080;48.818;9.526;2022-11-21T09:38:05;10.40;99.90
12039;DHT22;6080;48.818;9.526;2022-11-21T09:40:33;10.20;99.90
12039;DHT22;6080;48.818;9.526;2022-11-21T09:43:05;10.20;99.90
12039;DHT22;6080;48.818;9.526;2022-11-21T09:45:48;10.60;99.90
12039;DHT22;6080;48.818;9.526;2022-11-21T09:48:30;11.40;99.90
12039;DHT22;6080;48.818;9.526;2022-11-21T09:51:05;11.70;99.90
12039;DHT22;6080;48.818;9.526;2022-11-21T09:53:52;11.70;99.90
12039;DHT22;6080;48.818;9.526;2022-11-21T09:56:20;11.40;99.90
12039;DHT22;6080;48.818;9.526;2022-11-21T10:01:51;10.60;99.90
12039;DHT22;6080;48.818;9.526;2022-11-21T10:04:17;10.20;99.90
12039;DHT22;6080;48.818;9.526;2022-11-21T10:15:30;9.60;99.90
12039;DHT22;6080;48.818;9.526;2022-11-21T10:20:27;10.00;99.90
12039;DHT22;6080;48.818;9.526;2022-11-21T10:26:04;11.90;99.90
12039;DHT22;6080;48.818;9.526;2022-11-21T10:29:05;13.40;99.90
12039;DHT22;6080;48.818;9.526;2022-11-21T10:31:36;14.60;99.90
12039;DHT22;6080;48.818;9.526;2022-11-21T10:34:08;14.30;99.90
12039;DHT22;6080;48.818;9.526;2022-11-21T10:36:39;13.50;99.90
12039;DHT22;6080;48.818;9.526;2022-11-21T10:39:24;13.80;99.90
12039;DHT22;6080;48.818;9.526;2022-11-21T10:42:24;15.40;99.90
12039;DHT22;6080;48.818;9.526;2022-11-21T10:44:53;17.30;99.90
12039;DHT22;6080;48.818;9.526;2022-11-21T10:47:38;17.00;99.90
12039;DHT22;6080;48.818;9.526;2022-11-21T10:56:10;17.00;99.90
12039;DHT22;6080;48.818;9.526;2022-11-21T10:58:48;17.90;99.90
12039;DHT22;6080;48.818;9.526;2022-11-21T11:06:38;15.50;99.90
12039;DHT22;6080;48.818;9.526;2022-11-21T11:09:05;14.20;99.90
12039;DHT22;6080;48.818;9.526;2022-11-21T11:11:32;12.90;99.90
12039;DHT22;6080;48.818;9.526;2022-11-21T11:14:10;12.30;99.90
12039;DHT22;6080;48.818;9.526;2022-11-21T11:16:43;12.00;99.90
12039;DHT22;6080;48.818;9.526;2022-11-21T11:29:25;13.60;99.90
12039;DHT22;6080;48.818;9.526;2022-11-21T11:32:19;15.00;99.90
12039;DHT22;6080;48.818;9.526;2022-11-21T11:34:59;15.40;99.90
12039;DHT22;6080;48.818;9.526;2022-11-21T11:49:08;11.20;99.90
12039;DHT22;6080;48.818;9.526;2022-11-21T11:51:50;11.20;99.90
12039;DHT22;6080;48.818;9.526;2022-11-21T11:54:22;11.00;99.90
12039;DHT22;6080;48.818;9.526;2022-11-21T11:56:49;10.40;99.90
12039;DHT22;6080;48.818;9.526;2022-11-21T11:59:27;9.80;99.90
12039;DHT22;6080;48.818;9.526;2022-11-21T12:02:01;9.40;99.90
12039;DHT22;6080;48.818;9.526;2022-11-21T12:04:36;9.10;99.90
12039;DHT22;6080;48.818;9.526;2022-11-21T12:07:37;8.80;99.90
12039;DHT22;6080;48.818;9.526;2022-11-21T12:10:26;8.70;99.90
12039;DHT22;6080;48.818;9.526;2022-11-21T12:13:03;8.70;99.90
12039;DHT22;6080;48.818;9.526;2022-11-21T12:15:41;8.70;99.90
12039;DHT22;6080;48.818;9.526;2022-11-21T12:21:14;11.00;99.90
12039;DHT22;6080;48.818;9.526;2022-11-21T12:23:51;10.60;99.90
12039;DHT22;6080;48.818;9.526;2022-11-21T12:31:53;11.90;99.90
12039;DHT22;6080;48.818;9.526;2022-11-21T12:52:03;17.30;99.90
12039;DHT22;6080;48.818;9.526;2022-11-21T12:57:19;14.70;99.90
12039;DHT22;6080;48.818;9.526;2022-11-21T13:00:13;13.30;99.90
12039;DHT22;6080;48.818;9.526;2022-11-21T13:03:04;12.60;99.90
12039;DHT22;6080;48.818;9.526;2022-11-21T13:05:39;12.70;99.90
12039;DHT22;6080;48.818;9.526;2022-11-21T13:08:35;12.70;99.90
12039;DHT22;6080;48.818;9.526;2022-11-21T13:14:13;15.50;99.90
12039;DHT22;6080;48.818;9.526;2022-11-21T13:16:46;17.40;99.90
12039;DHT22;6080;48.818;9.526;2022-11-21T13:19:22;18.10;99.90
12039;DHT22;6080;48.818;9.526;2022-11-21T13:21:51;17.40;99.90
12039;DHT22;6080;48.818;9.526;2022-11-21T13:27:35;19.70;97.80
12039;DHT22;6080;48.818;9.526;2022-11-21T13:32:42;21.30;90.90
12039;DHT22;6080;48.818;9.526;2022-11-21T13:38:08;19.30;88.70
12039;DHT22;6080;48.818;9.526;2022-11-21T13:40:37;17.40;92.10
12039;DHT22;6080;48.818;9.526;2022-11-21T13:43:23;15.90;95.40
12039;DHT22;6080;48.818;9.526;2022-11-21T13:45:50;14.30;98.00
12039;DHT22;6080;48.818;9.526;2022-11-21T13:51:23;12.50;99.90
12039;DHT22;6080;48.818;9.526;2022-11-21T13:54:14;12.00;99.90
12039;DHT22;6080;48.818;9.526;2022-11-21T13:57:04;11.80;99.90
12039;DHT22;6080;48.818;9.526;2022-11-21T14:07:34;11.80;99.90
12039;DHT22;6080;48.818;9.526;2022-11-21T14:10:05;11.70;99.90
12039;DHT22;6080;48.818;9.526;2022-11-21T14:12:48;11.70;99.90
12039;DHT22;6080;48.818;9.526;2022-11-21T14:17:55;11.60;99.90
12039;DHT22;6080;48.818;9.526;2022-11-21T14:23:11;11.10;99.90
12039;DHT22;6080;48.818;9.526;2022-11-21T14:28:13;10.50;99.90
12039;DHT22;6080;48.818;9.526;2022-11-21T14:30:42;10.40;99.90
12039;DHT22;6080;48.818;9.526;2022-11-21T14:35:56;10.00;99.90
12039;DHT22;6080;48.818;9.526;2022-11-21T14:38:23;9.90;99.90
12039;DHT22;6080;48.818;9.526;2022-11-21T14:40:49;9.70;99.90
12039;DHT22;6080;48.818;9.526;2022-11-21T14:43:31;9.50;99.90
12039;DHT22;6080;48.818;9.526;2022-11-21T14:45:58;9.40;99.90
12039;DHT22;6080;48.818;9.526;2022-11-21T14:48:28;9.20;99.90
12039;DHT22;6080;48.818;9.526;2022-11-21T14:50:58;9.10;99.90
12039;DHT22;6080;48.818;9.526;2022-11-21T14:53:25;9.00;99.90
12039;DHT22;6080;48.818;9.526;2022-11-21T14:55:52;8.90;99.90
12039;DHT22;6080;48.818;9.526;2022-11-21T14:58:19;8.80;99.90
12039;DHT22;6080;48.818;9.526;2022-11-21T15:01:06;8.70;99.90
12039;DHT22;6080;48.818;9.526;2022-11-21T15:03:33;8.60;99.90
12039;DHT22;6080;48.818;9.526;2022-11-21T15:06:01;8.50;99.90
12039;DHT22;6080;48.818;9.526;2022-11-21T15:08:28;8.40;99.90
12039;DHT22;6080;48.818;9.526;2022-11-21T15:10:55;8.30;99.90
12039;DHT22;6080;48.818;9.526;2022-11-21T15:13:23;8.20;99.90
12039;DHT22;6080;48.818;9.526;2022-11-21T15:15:52;8.00;99.90
12039;DHT22;6080;48.818;9.526;2022-11-21T15:18:26;7.80;99.90
12039;DHT22;6080;48.818;9.526;2022-11-21T15:20:55;7.70;99.90
12039;DHT22;6080;48.818;9.526;2022-11-21T15:23:36;7.50;99.90
12039;DHT22;6080;48.818;9.526;2022-11-21T15:26:05;7.40;99.90
12039;DHT22;6080;48.818;9.526;2022-11-21T15:28:31;7.20;99.90
12039;DHT22;6080;48.818;9.526;2022-11-21T15:31:14;7.10;99.90
12039;DHT22;6080;48.818;9.526;2022-11-21T15:34:00;7.00;99.90
12039;DHT22;6080;48.818;9.526;2022-11-21T15:36:28;6.90;99.90
12039;DHT22;6080;48.818;9.526;2022-11-21T15:39:05;6.80;99.90
12039;DHT22;6080;48.818;9.526;2022-11-21T15:41:37;6.70;99.90
12039;DHT22;6080;48.818;9.526;2022-11-21T15:46:31;6.50;99.90
12039;DHT22;6080;48.818;9.526;2022-11-21T15:49:02;6.40;99.90
12039;DHT22;6080;48.818;9.526;2022-11-21T15:51:37;6.40;99.90
12039;DHT22;6080;48.818;9.526;2022-11-21T15:54:04;6.30;99.90
12039;DHT22;6080;48.818;9.526;2022-11-21T15:56:30;6.30;99.90
12039;DHT22;6080;48.818;9.526;2022-11-21T15:58:56;6.10;99.90
12039;DHT22;6080;48.818;9.526;2022-11-21T16:01:27;6.00;99.90
12039;DHT22;6080;48.818;9.526;2022-11-21T16:04:12;5.90;99.90
12039;DHT22;6080;48.818;9.526;2022-11-21T16:06:38;5.90;99.90
12039;DHT22;6080;48.818;9.526;2022-11-21T16:09:05;5.70;99.90
12039;DHT22;6080;48.818;9.526;2022-11-21T16:11:34;5.70;99.90
12039;DHT22;6080;48.818;9.526;2022-11-21T16:14:03;5.60;99.90
12039;DHT22;6080;48.818;9.526;2022-11-21T16:16:32;5.60;99.90
12039;DHT22;6080;48.818;9.526;2022-11-21T16:18:58;5.60;99.90
12039;DHT22;6080;48.818;9.526;2022-11-21T16:21:25;5.60;99.90
12039;DHT22;6080;48.818;9.526;2022-11-21T16:23:51;5.60;99.90
12039;DHT22;6080;48.818;9.526;2022-11-21T16:26:18;5.40;99.90
12039;DHT22;6080;48.818;9.526;2022-11-21T16:28:44;5.30;99.90
12039;DHT22;6080;48.818;9.526;2022-11-21T16:31:18;5.30;99.90
12039;DHT22;6080;48.818;9.526;2022-11-21T16:33:44;5.20;99.90
12039;DHT22;6080;48.818;9.526;2022-11-21T16:36:09;5.30;99.90
12039;DHT22;6080;48.818;9.526;2022-11-21T16:38:35;5.30;99.90
12039;DHT22;6080;48.818;9.526;2022-11-21T16:41:02;5.30;99.90
12039;DHT22;6080;48.818;9.526;2022-11-21T16:43:30;5.20;99.90
12039;DHT22;6080;48.818;9.526;2022-11-21T16:46:05;5.20;99.90
12039;DHT22;6080;48.818;9.526;2022-11-21T16:48:31;5.20;99.90
12039;DHT22;6080;48.818;9.526;2022-11-21T16:51:17;5.10;99.90
12039;DHT22;6080;48.818;9.526;2022-11-21T16:53:45;5.10;99.90
12039;DHT22;6080;48.818;9.526;2022-11-21T16:56:12;5.00;99.90
12039;DHT22;6080;48.818;9.526;2022-11-21T16:58:39;5.10;99.90
12039;DHT22;6080;48.818;9.526;2022-11-21T17:01:15;5.10;99.90
12039;DHT22;6080;48.818;9.526;2022-11-21T17:03:43;5.10;99.90
12039;DHT22;6080;48.818;9.526;2022-11-21T17:06:10;5.10;99.90
12039;DHT22;6080;48.818;9.526;2022-11-21T17:08:37;5.10;99.90
12039;DHT22;6080;48.818;9.526;2022-11-21T17:11:21;5.10;99.90
12039;DHT22;6080;48.818;9.526;2022-11-21T17:13:48;5.10;99.90
12039;DHT22;6080;48.818;9.526;2022-11-21T17:16:16;5.10;99.90
12039;DHT22;6080;48.818;9.526;2022-11-21T17:18:42;5.10;99.90
12039;DHT22;6080;48.818;9.526;2022-11-21T17:21:09;5.00;99.90
12039;DHT22;6080;48.818;9.526;2022-11-21T17:23:38;5.00;99.90
12039;DHT22;6080;48.818;9.526;2022-11-21T17:26:09;4.90;99.90
12039;DHT22;6080;48.818;9.526;2022-11-21T17:28:35;4.90;99.90
12039;DHT22;6080;48.818;9.526;2022-11-21T17:31:14;4.80;99.90
12039;DHT22;6080;48.818;9.526;2022-11-21T17:33:41;4.70;99.90
12039;DHT22;6080;48.818;9.526;2022-11-21T17:36:11;4.60;99.90
12039;DHT22;6080;48.818;9.526;2022-11-21T17:38:37;4.60;99.90
12039;DHT22;6080;48.818;9.526;2022-11-21T17:41:06;4.50;99.90
12039;DHT22;6080;48.818;9.526;2022-11-21T17:43:32;4.40;99.90
12039;DHT22;6080;48.818;9.526;2022-11-21T17:45:59;4.30;99.90
12039;DHT22;6080;48.818;9.526;2022-11-21T17:48:25;4.30;99.90
12039;DHT22;6080;48.818;9.526;2022-11-21T17:51:01;4.20;99.90
12039;DHT22;6080;48.818;9.526;2022-11-21T17:53:35;4.10;99.90
12039;DHT22;6080;48.818;9.526;2022-11-21T17:56:03;4.10;99.90
12039;DHT22;6080;48.818;9.526;2022-11-21T17:58:29;4.10;99.90
12039;DHT22;6080;48.818;9.526;2022-11-21T18:01:00;4.00;99.90
12039;DHT22;6080;48.818;9.526;2022-11-21T18:03:27;4.00;99.90
12039;DHT22;6080;48.818;9.526;2022-11-21T18:06:07;4.00;99.90
12039;DHT22;6080;48.818;9.526;2022-11-21T18:08:35;4.00;99.90